createdAt,value
2023-04-07T00:01:28.872Z,12.20
2023-04-07T00:03:56.865Z,12.73
2023-04-07T00:06:24.574Z,12.43
2023-04-07T00:08:52.151Z,12.07
2023-04-07T00:11:19.667Z,12.57
2023-04-07T00:13:47.280Z,12.90
2023-04-07T00:16:14.877Z,12.53
2023-04-07T00:18:42.478Z,14.03
2023-04-07T00:21:10.105Z,13.20
2023-04-07T00:23:37.661Z,12.50
2023-04-07T00:26:05.205Z,13.03
2023-04-07T00:28:32.756Z,12.47
2023-04-07T00:31:00.328Z,13.60
2023-04-07T00:33:27.928Z,15.27
2023-04-07T00:35:55.439Z,13.83
2023-04-07T00:38:23.080Z,13.60
2023-04-07T00:40:50.645Z,14.13
2023-04-07T00:43:18.237Z,15.43
2023-04-07T00:45:45.821Z,15.87
2023-04-07T00:48:13.356Z,15.97
2023-04-07T00:50:40.875Z,16.87
2023-04-07T00:53:09.188Z,16.13
2023-04-07T00:55:36.904Z,17.23
2023-04-07T00:58:04.483Z,18.87
2023-04-07T01:00:33.628Z,20.00
2023-04-07T01:03:10.815Z,21.43
2023-04-07T01:05:47.595Z,21.30
2023-04-07T01:08:15.115Z,22.37
2023-04-07T01:10:47.766Z,21.03
2023-04-07T01:13:31.350Z,23.40
2023-04-07T01:16:01.316Z,21.10
2023-04-07T01:18:32.073Z,24.57
2023-04-07T01:21:08.348Z,22.47
2023-04-07T01:23:54.769Z,23.63
2023-04-07T01:26:23.880Z,22.37
2023-04-07T01:29:03.429Z,21.63
2023-04-07T01:31:31.136Z,22.97
2023-04-07T01:33:59.972Z,21.07
2023-04-07T01:36:27.867Z,22.00
2023-04-07T01:38:55.712Z,21.13
2023-04-07T01:41:23.984Z,22.67
2023-04-07T01:43:52.695Z,21.73
2023-04-07T01:46:21.116Z,22.10
2023-04-07T01:48:49.381Z,24.73
2023-04-07T01:51:17.647Z,21.13
2023-04-07T01:53:46.707Z,22.40
2023-04-07T01:56:14.283Z,21.57
2023-04-07T01:58:41.811Z,23.17
2023-04-07T02:01:09.474Z,22.70
2023-04-07T02:03:41.385Z,21.63
2023-04-07T02:06:09.246Z,21.87
2023-04-07T02:08:37.366Z,21.17
2023-04-07T02:11:06.084Z,21.23
2023-04-07T02:13:34.765Z,21.17
2023-04-07T02:16:02.645Z,20.47
2023-04-07T02:18:31.847Z,19.37
2023-04-07T02:21:00.110Z,21.07
2023-04-07T02:23:27.975Z,20.47
2023-04-07T02:25:58.770Z,21.40
2023-04-07T02:28:26.428Z,19.10
2023-04-07T02:30:53.958Z,18.53
2023-04-07T02:33:21.626Z,18.27
2023-04-07T02:35:49.153Z,17.97
2023-04-07T02:38:16.725Z,15.50
2023-04-07T02:40:44.240Z,15.77
2023-04-07T02:43:11.795Z,14.53
2023-04-07T02:45:39.313Z,13.67
2023-04-07T02:48:07.139Z,13.63
2023-04-07T02:50:34.682Z,13.90
2023-04-07T02:53:02.248Z,14.73
2023-04-07T02:55:29.815Z,14.57
2023-04-07T02:57:57.393Z,13.93
2023-04-07T03:00:24.974Z,14.77
2023-04-07T03:02:52.631Z,15.00
2023-04-07T03:05:20.403Z,13.70
2023-04-07T03:07:48.002Z,15.00
2023-04-07T03:10:15.475Z,16.10
2023-04-07T03:12:43.831Z,14.70
2023-04-07T03:15:11.560Z,14.43
2023-04-07T03:17:39.342Z,16.00
2023-04-07T03:20:07.469Z,14.83
2023-04-07T03:22:35.054Z,12.97
2023-04-07T03:25:02.568Z,14.47
2023-04-07T03:27:30.145Z,15.37
2023-04-07T03:29:58.070Z,14.10
2023-04-07T03:32:25.691Z,14.27
2023-04-07T03:34:53.255Z,14.23
2023-04-07T03:37:20.851Z,12.67
2023-04-07T03:39:48.991Z,12.37
2023-04-07T03:42:17.842Z,10.37
2023-04-07T03:44:45.399Z,12.07
2023-04-07T03:47:12.934Z,11.33
2023-04-07T03:49:40.427Z,11.37
2023-04-07T03:52:08.033Z,11.57
2023-04-07T03:54:35.544Z,10.77
2023-04-07T03:57:03.269Z,9.77
2023-04-07T03:59:30.816Z,9.70
2023-04-07T04:01:58.461Z,8.97
2023-04-07T04:04:26.030Z,8.60
2023-04-07T04:06:53.708Z,8.70
2023-04-07T04:09:21.280Z,8.87
2023-04-07T04:11:48.840Z,7.90
2023-04-07T04:14:16.362Z,8.13
2023-04-07T04:16:43.999Z,8.77
2023-04-07T04:19:11.545Z,8.17
2023-04-07T04:21:39.208Z,7.33
2023-04-07T04:24:06.832Z,8.20
2023-04-07T04:26:34.435Z,6.50
2023-04-07T04:29:01.993Z,6.60
2023-04-07T04:31:29.659Z,6.30
2023-04-07T04:33:57.239Z,7.13
2023-04-07T04:36:24.951Z,6.43
2023-04-07T04:38:52.484Z,6.87
2023-04-07T04:41:20.055Z,6.33
2023-04-07T04:43:48.070Z,7.00
2023-04-07T04:46:15.757Z,6.53
2023-04-07T04:48:43.330Z,6.53
2023-04-07T04:51:10.941Z,6.83
2023-04-07T04:53:38.463Z,6.53
2023-04-07T04:56:06.342Z,7.40
2023-04-07T04:58:33.846Z,7.67
2023-04-07T05:01:01.654Z,7.40
2023-04-07T05:03:29.718Z,7.30
2023-04-07T05:05:57.630Z,8.33
2023-04-07T05:08:25.121Z,8.00
2023-04-07T05:10:52.728Z,8.40
2023-04-07T05:13:20.255Z,8.57
2023-04-07T05:15:48.074Z,7.77
2023-04-07T05:18:15.700Z,7.30
2023-04-07T05:20:43.855Z,7.33
2023-04-07T05:23:11.384Z,7.63
2023-04-07T05:25:38.913Z,7.90
2023-04-07T05:28:06.947Z,7.63
2023-04-07T05:30:34.626Z,7.60
2023-04-07T05:33:06.453Z,8.17
2023-04-07T05:35:34.276Z,8.50
2023-04-07T05:38:01.834Z,8.27
2023-04-07T05:40:29.806Z,8.37
2023-04-07T05:42:57.312Z,7.80
2023-04-07T05:45:24.866Z,7.93
2023-04-07T05:47:52.517Z,8.60
2023-04-07T05:50:20.210Z,7.37
2023-04-07T05:52:47.741Z,8.93
2023-04-07T05:55:15.322Z,7.90
2023-04-07T05:57:42.815Z,8.50
2023-04-07T06:00:10.718Z,7.93
2023-04-07T06:02:38.425Z,7.50
2023-04-07T06:05:06.526Z,7.27
2023-04-07T06:07:34.064Z,8.10
2023-04-07T06:10:01.796Z,6.77
2023-04-07T06:12:29.348Z,7.00
2023-04-07T06:14:57.308Z,7.00
2023-04-07T06:17:24.854Z,6.37
2023-04-07T06:19:52.423Z,6.70
2023-04-07T06:22:19.903Z,6.37
2023-04-07T06:24:47.425Z,7.40
2023-04-07T06:27:14.961Z,7.33
2023-04-07T06:29:42.530Z,7.17
2023-04-07T06:32:10.046Z,7.33
2023-04-07T06:34:37.605Z,6.60
2023-04-07T06:37:05.201Z,7.87
2023-04-07T06:39:32.937Z,7.67
2023-04-07T06:42:00.470Z,7.27
2023-04-07T06:44:28.118Z,7.13
2023-04-07T06:46:55.697Z,7.43
2023-04-07T06:49:23.285Z,7.50
2023-04-07T06:51:50.788Z,7.77
2023-04-07T06:54:18.348Z,7.53
2023-04-07T06:56:45.864Z,9.07
2023-04-07T06:59:13.418Z,8.43
2023-04-07T07:01:41.069Z,8.20
2023-04-07T07:04:08.765Z,9.73
2023-04-07T07:06:36.323Z,8.57
2023-04-07T07:09:04.050Z,8.37
2023-04-07T07:11:31.533Z,8.57
2023-04-07T07:13:59.921Z,9.60
2023-04-07T07:16:27.731Z,10.37
2023-04-07T07:18:55.600Z,10.00
2023-04-07T07:21:23.136Z,10.30
2023-04-07T07:23:50.727Z,9.43
2023-04-07T07:26:18.238Z,9.40
2023-04-07T07:28:45.808Z,9.83
2023-04-07T07:31:13.616Z,10.03
2023-04-07T07:33:41.578Z,9.90
2023-04-07T07:36:09.258Z,9.53
2023-04-07T07:38:37.764Z,10.10
2023-04-07T07:41:06.716Z,10.53
2023-04-07T07:43:34.325Z,11.10
2023-04-07T07:46:02.008Z,11.00
2023-04-07T07:48:29.669Z,10.17
2023-04-07T07:50:57.233Z,9.57
2023-04-07T07:53:25.036Z,10.80
2023-04-07T07:55:52.580Z,10.70
2023-04-07T07:58:20.185Z,10.97
2023-04-07T08:00:47.810Z,10.33
2023-04-07T08:03:15.405Z,10.73
2023-04-07T08:05:42.978Z,10.50
2023-04-07T08:08:10.546Z,10.30
2023-04-07T08:10:38.071Z,10.53
2023-04-07T08:13:05.643Z,8.97
2023-04-07T08:15:33.141Z,10.20
2023-04-07T08:18:00.777Z,10.93
2023-04-07T08:20:28.349Z,10.90
2023-04-07T08:22:55.979Z,10.20
2023-04-07T08:25:23.561Z,9.83
2023-04-07T08:27:51.108Z,9.70
2023-04-07T08:30:18.652Z,10.27
2023-04-07T08:32:46.382Z,10.00
2023-04-07T08:35:13.938Z,10.47
2023-04-07T08:37:41.750Z,11.47
2023-04-07T08:40:09.429Z,11.50
2023-04-07T08:42:40.992Z,10.80
2023-04-07T08:45:08.770Z,11.07
2023-04-07T08:47:37.296Z,11.17
2023-04-07T08:50:06.431Z,10.67
2023-04-07T08:52:49.153Z,11.07
2023-04-07T08:55:16.804Z,10.80
2023-04-07T08:57:44.474Z,11.20
2023-04-07T09:00:12.580Z,11.83
2023-04-07T09:02:41.061Z,11.50
2023-04-07T09:05:09.482Z,11.70
2023-04-07T09:07:37.486Z,11.53
2023-04-07T09:10:05.455Z,11.30
2023-04-07T09:12:33.346Z,11.37
2023-04-07T09:15:01.096Z,10.63
2023-04-07T09:17:29.334Z,11.13
2023-04-07T09:19:57.601Z,10.80
2023-04-07T09:22:40.483Z,10.80
2023-04-07T09:25:14.431Z,11.50
2023-04-07T09:27:42.202Z,10.37
2023-04-07T09:30:13.650Z,10.57
2023-04-07T09:32:41.305Z,10.77
2023-04-07T09:35:09.230Z,10.60
2023-04-07T09:37:36.923Z,9.40
2023-04-07T09:40:04.725Z,10.40
2023-04-07T09:42:33.284Z,9.27
2023-04-07T09:45:01.371Z,8.80
2023-04-07T09:47:35.101Z,9.97
2023-04-07T09:50:02.694Z,7.93
2023-04-07T09:52:49.065Z,9.30
2023-04-07T09:55:16.976Z,10.53
2023-04-07T09:57:44.914Z,9.40
2023-04-07T10:00:12.891Z,9.07
2023-04-07T10:02:40.813Z,10.13
2023-04-07T10:05:08.678Z,11.60
2023-04-07T10:07:36.768Z,9.10
2023-04-07T10:10:05.160Z,9.33
2023-04-07T10:12:34.877Z,9.47
2023-04-07T10:15:02.574Z,7.70
2023-04-07T10:17:30.398Z,8.43
2023-04-07T10:20:02.141Z,8.10
2023-04-07T10:22:30.454Z,8.30
2023-04-07T10:25:03.376Z,6.87
2023-04-07T10:27:42.709Z,7.37
2023-04-07T10:30:14.466Z,9.07
2023-04-07T10:32:51.932Z,7.60
2023-04-07T10:35:19.733Z,8.60
2023-04-07T10:38:06.009Z,8.10
2023-04-07T10:40:33.963Z,7.50
2023-04-07T10:43:01.589Z,8.80
2023-04-07T10:45:47.786Z,9.57
2023-04-07T10:48:16.160Z,8.40
2023-04-07T10:50:43.714Z,8.20
2023-04-07T10:53:11.400Z,9.13
2023-04-07T10:55:39.095Z,9.27
2023-04-07T10:58:20.073Z,10.07
2023-04-07T11:01:06.499Z,10.90
2023-04-07T11:03:35.906Z,10.70
2023-04-07T11:06:10.203Z,11.73
2023-04-07T11:08:46.831Z,9.67
2023-04-07T11:11:17.189Z,10.20
2023-04-07T11:13:51.749Z,10.67
2023-04-07T11:16:20.066Z,10.17
2023-04-07T11:18:48.418Z,10.73
2023-04-07T11:21:19.604Z,9.47
2023-04-07T11:23:48.845Z,9.17
2023-04-07T11:26:16.924Z,9.40
2023-04-07T11:28:51.376Z,10.50
2023-04-07T11:31:29.269Z,9.53
2023-04-07T11:33:57.761Z,9.47
2023-04-07T11:36:28.377Z,9.43
2023-04-07T11:38:55.923Z,9.13
2023-04-07T11:41:23.578Z,8.40
2023-04-07T11:44:04.255Z,9.07
2023-04-07T11:46:31.910Z,8.53
2023-04-07T11:49:09.531Z,8.53
2023-04-07T11:51:37.102Z,8.43
2023-04-07T11:54:04.652Z,8.37
2023-04-07T11:56:41.871Z,8.27
2023-04-07T11:59:29.750Z,7.57
2023-04-07T12:02:05.423Z,7.53
2023-04-07T12:04:40.331Z,7.60
2023-04-07T12:07:15.465Z,7.10
2023-04-07T12:09:43.073Z,6.60
2023-04-07T12:12:10.566Z,6.97
2023-04-07T12:14:38.285Z,7.23
2023-04-07T12:17:05.850Z,6.50
2023-04-07T12:19:33.786Z,7.47
2023-04-07T12:22:01.255Z,7.33
2023-04-07T12:24:28.881Z,6.80
2023-04-07T12:26:56.639Z,6.57
2023-04-07T12:29:24.291Z,7.50
2023-04-07T12:31:51.817Z,7.93
2023-04-07T12:34:19.658Z,8.37
2023-04-07T12:36:47.268Z,8.23
2023-04-07T12:39:15.817Z,9.03
2023-04-07T12:41:43.343Z,8.17
2023-04-07T12:44:10.902Z,8.33
2023-04-07T12:46:38.436Z,8.37
2023-04-07T12:49:06.069Z,9.23
2023-04-07T12:51:33.850Z,7.73
2023-04-07T12:54:01.557Z,8.43
2023-04-07T12:56:29.131Z,8.87
2023-04-07T12:58:56.964Z,8.63
2023-04-07T13:01:24.576Z,6.87
2023-04-07T13:03:52.540Z,7.80
2023-04-07T13:06:20.490Z,7.73
2023-04-07T13:08:48.061Z,8.30
2023-04-07T13:11:15.547Z,8.60
2023-04-07T13:13:43.202Z,8.80
2023-04-07T13:16:10.869Z,9.27
2023-04-07T13:18:38.485Z,8.30
2023-04-07T13:21:40.443Z,7.97
2023-04-07T13:23:53.647Z,9.70
2023-04-07T13:26:21.244Z,8.90
2023-04-07T13:28:49.013Z,8.97
2023-04-07T13:31:16.704Z,9.17
2023-04-07T13:33:44.420Z,9.63
2023-04-07T13:36:11.993Z,9.00
2023-04-07T13:38:39.618Z,8.80
2023-04-07T13:41:07.302Z,8.70
2023-04-07T13:43:34.986Z,9.77
2023-04-07T13:46:02.601Z,9.37
2023-04-07T13:48:30.343Z,8.57
2023-04-07T13:50:57.947Z,8.77
2023-04-07T13:53:25.611Z,9.87
2023-04-07T13:55:53.315Z,10.40
2023-04-07T13:58:20.956Z,9.27
2023-04-07T14:00:48.497Z,9.63
2023-04-07T14:03:16.231Z,9.13
2023-04-07T14:05:43.864Z,8.53
2023-04-07T14:08:11.533Z,8.37
2023-04-07T14:10:39.966Z,8.07
2023-04-07T14:13:07.599Z,7.80
2023-04-07T14:15:35.226Z,8.47
2023-04-07T14:18:02.913Z,7.10
2023-04-07T14:20:30.610Z,8.40
2023-04-07T14:22:58.297Z,8.37
2023-04-07T14:25:25.826Z,8.03
2023-04-07T14:27:55.097Z,9.20
2023-04-07T14:30:22.759Z,6.87
2023-04-07T14:32:50.430Z,8.10
2023-04-07T14:35:18.136Z,8.20
2023-04-07T14:37:45.723Z,7.17
2023-04-07T14:40:13.534Z,7.80
2023-04-07T14:42:41.167Z,7.00
2023-04-07T14:45:11.981Z,8.00
2023-04-07T14:47:39.595Z,7.70
2023-04-07T14:50:07.370Z,7.73
2023-04-07T14:52:34.986Z,7.27
2023-04-07T14:55:02.509Z,7.17
2023-04-07T14:57:30.167Z,6.77
2023-04-07T14:59:57.700Z,6.93
2023-04-07T15:02:25.443Z,8.27
2023-04-07T15:04:53.273Z,9.27
2023-04-07T15:07:20.975Z,8.73
2023-04-07T15:09:48.573Z,8.40
2023-04-07T15:12:16.297Z,9.43
2023-04-07T15:14:44.813Z,7.97
2023-04-07T15:17:12.625Z,9.00
2023-04-07T15:19:40.176Z,8.53
2023-04-07T15:22:08.095Z,8.67
2023-04-07T15:24:38.331Z,8.80
2023-04-07T15:27:06.665Z,8.43
2023-04-07T15:29:34.389Z,7.97
2023-04-07T15:32:02.160Z,7.47
2023-04-07T15:34:29.796Z,7.30
2023-04-07T15:36:57.446Z,8.33
2023-04-07T15:39:25.059Z,8.10
2023-04-07T15:41:52.766Z,8.47
2023-04-07T15:44:20.404Z,7.53
2023-04-07T15:46:48.419Z,8.30
2023-04-07T15:49:15.958Z,7.77
2023-04-07T15:51:43.581Z,7.83
2023-04-07T15:54:11.110Z,8.23
2023-04-07T15:56:38.789Z,8.00
2023-04-07T15:59:06.333Z,8.33
2023-04-07T16:01:34.008Z,7.83
2023-04-07T16:04:01.861Z,7.40
2023-04-07T16:06:29.634Z,7.43
2023-04-07T16:08:57.417Z,8.13
2023-04-07T16:11:25.117Z,8.10
2023-04-07T16:13:52.662Z,8.83
2023-04-07T16:16:20.371Z,8.00
2023-04-07T16:18:48.149Z,7.07
2023-04-07T16:21:15.803Z,12.30
2023-04-07T16:23:43.408Z,10.17
2023-04-07T16:26:12.290Z,9.33
2023-04-07T16:28:39.927Z,8.07
2023-04-07T16:31:07.550Z,8.00
2023-04-07T16:33:35.438Z,7.23
2023-04-07T16:38:30.593Z,8.33
2023-04-07T16:41:04.389Z,8.53
2023-04-07T16:43:32.620Z,8.33
2023-04-07T16:46:00.478Z,8.33
2023-04-07T16:48:28.286Z,8.93
2023-04-07T16:50:55.794Z,8.03
2023-04-07T16:53:23.370Z,7.67
2023-04-07T16:55:50.927Z,7.37
2023-04-07T16:58:18.490Z,8.93
2023-04-07T17:00:46.299Z,7.97
2023-04-07T17:03:14.981Z,8.33
2023-04-07T17:05:42.864Z,8.63
2023-04-07T17:08:10.504Z,8.20
2023-04-07T17:10:38.104Z,8.47
2023-04-07T17:13:05.816Z,8.70
2023-04-07T17:15:36.251Z,8.20
2023-04-07T17:18:03.938Z,8.40
2023-04-07T17:20:31.598Z,9.10
2023-04-07T17:22:59.331Z,9.77
2023-04-07T17:25:27.105Z,8.90
2023-04-07T17:27:54.702Z,8.73
2023-04-07T17:30:22.330Z,9.13
2023-04-07T17:32:50.241Z,9.23
2023-04-07T17:35:17.873Z,9.50
2023-04-07T17:37:45.632Z,9.63
2023-04-07T17:40:13.331Z,9.53
2023-04-07T17:42:40.969Z,9.20
2023-04-07T17:45:08.976Z,9.23
2023-04-07T17:47:36.689Z,9.40
2023-04-07T17:50:04.425Z,9.13
2023-04-07T17:52:32.152Z,9.13
2023-04-07T17:54:59.658Z,9.83
2023-04-07T17:57:27.265Z,9.43
2023-04-07T17:59:54.874Z,9.93
2023-04-07T18:02:22.611Z,10.87
2023-04-07T18:04:50.523Z,10.30
2023-04-07T18:07:18.203Z,9.37
2023-04-07T18:09:45.757Z,9.40
2023-04-07T18:12:13.405Z,9.60
2023-04-07T18:14:40.940Z,9.80
2023-04-07T18:17:08.798Z,11.13
2023-04-07T18:19:36.332Z,9.83
2023-04-07T18:22:04.069Z,9.27
2023-04-07T18:24:31.737Z,9.67
2023-04-07T18:26:59.316Z,10.73
2023-04-07T18:29:26.946Z,9.67
2023-04-07T18:31:54.600Z,9.77
2023-04-07T18:34:22.398Z,10.43
2023-04-07T18:36:49.918Z,10.33
2023-04-07T18:39:17.536Z,10.27
2023-04-07T18:41:45.128Z,9.80
2023-04-07T18:44:12.946Z,10.17
2023-04-07T18:46:40.981Z,10.33
2023-04-07T18:49:08.747Z,10.20
2023-04-07T18:51:36.412Z,10.30
2023-04-07T18:54:04.102Z,9.97
2023-04-07T18:56:32.098Z,10.67
2023-04-07T18:58:59.689Z,11.20
2023-04-07T19:01:27.345Z,10.50
2023-04-07T19:03:55.029Z,10.73
2023-04-07T19:06:22.569Z,10.23
2023-04-07T19:08:50.185Z,9.70
2023-04-07T19:11:18.369Z,9.80
2023-04-07T19:13:45.939Z,9.37
2023-04-07T19:16:13.508Z,10.13
2023-04-07T19:18:41.112Z,10.27
2023-04-07T19:21:08.655Z,9.63
2023-04-07T19:23:36.303Z,10.23
2023-04-07T19:26:04.349Z,10.13
2023-04-07T19:28:31.926Z,11.30
2023-04-07T19:30:59.496Z,10.33
2023-04-07T19:33:27.048Z,10.07
2023-04-07T19:35:54.605Z,9.53
2023-04-07T19:38:22.240Z,9.87
2023-04-07T19:40:49.807Z,10.83
2023-04-07T19:43:17.415Z,9.83
2023-04-07T19:45:46.309Z,10.23
2023-04-07T19:48:14.146Z,10.27
2023-04-07T19:50:41.729Z,10.43
2023-04-07T19:53:09.252Z,10.07
2023-04-07T19:55:36.790Z,10.70
2023-04-07T19:58:04.424Z,12.03
2023-04-07T20:00:33.103Z,11.63
2023-04-07T20:03:01.349Z,11.50
2023-04-07T20:05:28.982Z,12.50
2023-04-07T20:07:56.579Z,11.13
2023-04-07T20:10:24.089Z,11.70
2023-04-07T20:12:51.649Z,10.73
2023-04-07T20:15:19.341Z,11.57
2023-04-07T20:17:46.954Z,11.00
2023-04-07T20:20:14.880Z,11.80
2023-04-07T20:22:42.498Z,12.83
2023-04-07T20:25:10.502Z,11.90
2023-04-07T20:27:38.169Z,10.73
2023-04-07T20:30:06.039Z,11.07
2023-04-07T20:32:33.708Z,12.67
2023-04-07T20:35:01.274Z,13.03
2023-04-07T20:37:28.909Z,12.30
2023-04-07T20:39:56.398Z,13.53
2023-04-07T20:42:23.983Z,13.33
2023-04-07T20:44:51.546Z,13.23
2023-04-07T20:47:19.306Z,12.83
2023-04-07T20:49:46.844Z,13.43
2023-04-07T20:52:14.490Z,13.60
2023-04-07T20:54:42.039Z,13.30
2023-04-07T20:57:09.612Z,13.47
2023-04-07T20:59:37.091Z,14.03
2023-04-07T21:02:04.816Z,13.07
2023-04-07T21:04:32.381Z,12.77
2023-04-07T21:06:59.965Z,14.53
2023-04-07T21:09:27.506Z,12.83
2023-04-07T21:11:55.080Z,14.40
2023-04-07T21:14:22.614Z,14.20
2023-04-07T21:16:50.160Z,13.87
2023-04-07T21:19:17.737Z,14.17
2023-04-07T21:21:45.331Z,14.57
2023-04-07T21:24:12.861Z,15.63
2023-04-07T21:26:40.417Z,13.90
2023-04-07T21:29:07.967Z,15.00
2023-04-07T21:31:35.553Z,16.43
2023-04-07T21:34:03.106Z,11.80
2023-04-07T21:36:30.780Z,14.43
2023-04-07T21:38:58.277Z,14.97
2023-04-07T21:41:25.884Z,15.10
2023-04-07T21:43:53.435Z,15.23
2023-04-07T21:46:21.137Z,14.10
2023-04-07T21:48:48.911Z,15.43
2023-04-07T21:51:16.722Z,15.63
2023-04-07T21:53:44.218Z,16.47
2023-04-07T21:56:11.961Z,15.87
2023-04-07T21:58:39.554Z,15.50
2023-04-07T22:01:07.161Z,15.70
2023-04-07T22:03:34.806Z,16.80
2023-04-07T22:06:02.822Z,14.77
2023-04-07T22:08:30.378Z,15.23
2023-04-07T22:10:57.979Z,15.70
2023-04-07T22:13:25.561Z,15.87
2023-04-07T22:15:53.378Z,15.83
2023-04-07T22:18:22.157Z,15.33
2023-04-07T22:20:49.850Z,15.60
2023-04-07T22:23:17.360Z,16.67
2023-04-07T22:25:44.981Z,16.63
2023-04-07T22:28:12.743Z,15.77
2023-04-07T22:30:40.408Z,16.70
2023-04-07T22:33:09.798Z,16.10
2023-04-07T22:35:38.471Z,15.73
2023-04-07T22:38:06.048Z,18.03
2023-04-07T22:40:33.756Z,17.83
2023-04-07T22:43:01.344Z,17.13
2023-04-07T22:45:28.959Z,18.80
2023-04-07T22:47:56.590Z,17.87
2023-04-07T22:50:24.257Z,17.37
2023-04-07T22:52:51.783Z,18.53
2023-04-07T22:55:19.386Z,19.13
2023-04-07T22:57:46.937Z,19.77
2023-04-07T23:00:14.771Z,18.97
2023-04-07T23:02:42.478Z,19.60
2023-04-07T23:05:10.384Z,20.60
2023-04-07T23:07:38.287Z,20.67
2023-04-07T23:10:06.158Z,20.80
2023-04-07T23:12:33.746Z,20.17
2023-04-07T23:15:01.371Z,20.07
2023-04-07T23:17:28.925Z,20.13
2023-04-07T23:19:56.527Z,20.87
2023-04-07T23:22:24.041Z,20.07
2023-04-07T23:24:51.663Z,19.90
2023-04-07T23:27:19.204Z,21.13
2023-04-07T23:29:46.809Z,20.33
2023-04-07T23:32:14.469Z,21.73
2023-04-07T23:34:41.990Z,22.50
2023-04-07T23:37:09.499Z,21.87
2023-04-07T23:39:37.023Z,21.70
2023-04-07T23:42:04.513Z,22.67
2023-04-07T23:44:32.467Z,22.13
2023-04-07T23:46:59.980Z,22.53
2023-04-07T23:49:27.544Z,21.53
2023-04-07T23:51:55.082Z,22.50
2023-04-07T23:54:22.636Z,23.03
2023-04-07T23:56:50.170Z,21.93
2023-04-07T23:59:17.738Z,21.80
